sensor_id;sensor_type;location;lat;lon;timestamp;pressure;altitude;pressure_sealevel;temperature;humidity
12213;BME280;6169;44.158;22.788;2023-08-21T00:03:52;101194.41;;;27.57;48.52
12213;BME280;6169;44.158;22.788;2023-08-21T00:08:54;101186.59;;;27.21;50.19
12213;BME280;6169;44.158;22.788;2023-08-21T00:13:57;101181.69;;;26.58;52.17
12213;BME280;6169;44.158;22.788;2023-08-21T00:19:00;101184.72;;;26.27;53.56
12213;BME280;6169;44.158;22.788;2023-08-21T00:24:02;101181.81;;;26.62;52.06
12213;BME280;6169;44.158;22.788;2023-08-21T00:29:05;101182.22;;;26.52;52.83
12213;BME280;6169;44.158;22.788;2023-08-21T00:34:07;101182.75;;;26.36;52.90
12213;BME280;6169;44.158;22.788;2023-08-21T00:39:09;101181.63;;;26.29;52.89
12213;BME280;6169;44.158;22.788;2023-08-21T00:44:13;101192.53;;;25.87;54.49
12213;BME280;6169;44.158;22.788;2023-08-21T00:49:15;101191.81;;;26.16;53.62
12213;BME280;6169;44.158;22.788;2023-08-21T00:54:17;101199.25;;;26.88;50.69
12213;BME280;6169;44.158;22.788;2023-08-21T00:59:22;101207.63;;;26.88;50.35
12213;BME280;6169;44.158;22.788;2023-08-21T01:04:25;101208.88;;;27.08;49.85
12213;BME280;6169;44.158;22.788;2023-08-21T01:09:31;101204.97;;;26.62;51.50
12213;BME280;6169;44.158;22.788;2023-08-21T01:14:44;101203.31;;;25.71;54.99
12213;BME280;6169;44.158;22.788;2023-08-21T01:19:48;101216.28;;;26.66;51.50
12213;BME280;6169;44.158;22.788;2023-08-21T01:24:53;101215.69;;;26.34;52.57
12213;BME280;6169;44.158;22.788;2023-08-21T01:29:55;101212.59;;;26.27;52.64
12213;BME280;6169;44.158;22.788;2023-08-21T01:34:58;101224.34;;;26.50;52.02
12213;BME280;6169;44.158;22.788;2023-08-21T01:40:03;101223.56;;;26.88;50.54
12213;BME280;6169;44.158;22.788;2023-08-21T01:45:06;101222.31;;;26.12;52.92
12213;BME280;6169;44.158;22.788;2023-08-21T01:50:09;101223.44;;;26.37;51.84
12213;BME280;6169;44.158;22.788;2023-08-21T01:55:13;101217.78;;;26.55;51.63
12213;BME280;6169;44.158;22.788;2023-08-21T02:00:15;101221.75;;;26.92;50.13
12213;BME280;6169;44.158;22.788;2023-08-21T02:05:17;101228.94;;;27.02;49.88
12213;BME280;6169;44.158;22.788;2023-08-21T02:10:21;101232.06;;;27.21;49.08
12213;BME280;6169;44.158;22.788;2023-08-21T02:15:23;101229.44;;;26.95;49.47
12213;BME280;6169;44.158;22.788;2023-08-21T02:20:25;101241.91;;;26.33;51.67
12213;BME280;6169;44.158;22.788;2023-08-21T02:25:29;101245.72;;;26.11;51.79
12213;BME280;6169;44.158;22.788;2023-08-21T02:30:31;101235.41;;;25.59;54.75
12213;BME280;6169;44.158;22.788;2023-08-21T02:35:33;101226.59;;;25.75;53.35
12213;BME280;6169;44.158;22.788;2023-08-21T02:40:37;101235.09;;;25.61;54.09
12213;BME280;6169;44.158;22.788;2023-08-21T02:45:40;101241.00;;;25.86;53.48
12213;BME280;6169;44.158;22.788;2023-08-21T02:50:42;101227.84;;;25.43;54.42
12213;BME280;6169;44.158;22.788;2023-08-21T02:55:45;101239.84;;;25.03;56.71
12213;BME280;6169;44.158;22.788;2023-08-21T03:00:47;101230.66;;;25.60;54.36
12213;BME280;6169;44.158;22.788;2023-08-21T03:05:49;101220.50;;;25.64;54.77
12213;BME280;6169;44.158;22.788;2023-08-21T03:10:53;101231.81;;;26.02;53.02
12213;BME280;6169;44.158;22.788;2023-08-21T03:15:55;101226.91;;;25.65;54.33
12213;BME280;6169;44.158;22.788;2023-08-21T03:20:58;101227.44;;;25.09;56.76
12213;BME280;6169;44.158;22.788;2023-08-21T03:26:01;101226.53;;;25.40;55.01
12213;BME280;6169;44.158;22.788;2023-08-21T03:31:03;101219.72;;;25.90;53.66
12213;BME280;6169;44.158;22.788;2023-08-21T03:36:06;101225.91;;;25.60;54.79
12213;BME280;6169;44.158;22.788;2023-08-21T03:41:10;101224.91;;;25.74;53.73
12213;BME280;6169;44.158;22.788;2023-08-21T03:46:12;101216.22;;;25.49;54.98
12213;BME280;6169;44.158;22.788;2023-08-21T03:51:15;101216.56;;;25.65;54.71
12213;BME280;6169;44.158;22.788;2023-08-21T03:56:18;101216.00;;;25.11;56.50
12213;BME280;6169;44.158;22.788;2023-08-21T04:01:20;101215.66;;;25.21;56.94
12213;BME280;6169;44.158;22.788;2023-08-21T04:06:22;101219.59;;;25.11;56.89
12213;BME280;6169;44.158;22.788;2023-08-21T04:11:26;101229.53;;;25.04;57.06
12213;BME280;6169;44.158;22.788;2023-08-21T04:16:29;101232.59;;;24.85;57.95
12213;BME280;6169;44.158;22.788;2023-08-21T04:21:31;101226.72;;;24.95;57.50
12213;BME280;6169;44.158;22.788;2023-08-21T04:26:35;101225.22;;;25.46;55.95
12213;BME280;6169;44.158;22.788;2023-08-21T04:31:37;101225.72;;;25.31;56.67
12213;BME280;6169;44.158;22.788;2023-08-21T04:36:39;101229.16;;;25.28;56.97
12213;BME280;6169;44.158;22.788;2023-08-21T04:41:43;101230.94;;;25.32;56.57
12213;BME280;6169;44.158;22.788;2023-08-21T04:46:49;101239.06;;;25.86;55.04
12213;BME280;6169;44.158;22.788;2023-08-21T04:51:52;101240.97;;;25.59;55.49
12213;BME280;6169;44.158;22.788;2023-08-21T04:56:55;101253.31;;;24.79;57.64
12213;BME280;6169;44.158;22.788;2023-08-21T05:01:57;101247.16;;;25.22;56.95
12213;BME280;6169;44.158;22.788;2023-08-21T05:07:00;101256.34;;;25.57;55.22
12213;BME280;6169;44.158;22.788;2023-08-21T05:12:05;101268.81;;;25.77;55.04
12213;BME280;6169;44.158;22.788;2023-08-21T05:17:07;101278.19;;;26.07;53.59
12213;BME280;6169;44.158;22.788;2023-08-21T05:22:09;101272.44;;;26.21;53.66
12213;BME280;6169;44.158;22.788;2023-08-21T05:27:13;101274.25;;;26.08;54.15
12213;BME280;6169;44.158;22.788;2023-08-21T05:32:15;101277.00;;;26.52;52.99
12213;BME280;6169;44.158;22.788;2023-08-21T05:37:17;101270.53;;;26.77;52.92
12213;BME280;6169;44.158;22.788;2023-08-21T05:42:21;101279.50;;;26.36;54.05
12213;BME280;6169;44.158;22.788;2023-08-21T05:47:23;101272.09;;;26.96;52.26
12213;BME280;6169;44.158;22.788;2023-08-21T05:52:27;101269.59;;;27.32;51.66
12213;BME280;6169;44.158;22.788;2023-08-21T05:57:31;101288.69;;;27.30;50.52
12213;BME280;6169;44.158;22.788;2023-08-21T06:02:33;101286.03;;;27.34;51.20
12213;BME280;6169;44.158;22.788;2023-08-21T06:07:35;101279.97;;;27.62;49.54
12213;BME280;6169;44.158;22.788;2023-08-21T06:12:39;101279.50;;;27.80;49.48
12213;BME280;6169;44.158;22.788;2023-08-21T06:17:42;101280.84;;;27.74;49.89
12213;BME280;6169;44.158;22.788;2023-08-21T06:22:44;101289.31;;;28.08;49.49
12213;BME280;6169;44.158;22.788;2023-08-21T06:27:47;101296.41;;;28.59;48.64
12213;BME280;6169;44.158;22.788;2023-08-21T06:32:49;101294.47;;;28.51;49.47
12213;BME280;6169;44.158;22.788;2023-08-21T06:37:52;101304.38;;;28.82;48.89
12213;BME280;6169;44.158;22.788;2023-08-21T06:42:56;101301.84;;;29.13;48.33
12213;BME280;6169;44.158;22.788;2023-08-21T06:47:59;101293.81;;;29.24;48.66
12213;BME280;6169;44.158;22.788;2023-08-21T06:53:01;101302.06;;;29.08;48.69
12213;BME280;6169;44.158;22.788;2023-08-21T06:58:05;101298.44;;;29.57;48.67
12213;BME280;6169;44.158;22.788;2023-08-21T07:03:07;101302.28;;;29.52;48.53
12213;BME280;6169;44.158;22.788;2023-08-21T07:08:09;101293.03;;;29.52;48.54
12213;BME280;6169;44.158;22.788;2023-08-21T07:13:13;101296.34;;;29.94;47.89
12213;BME280;6169;44.158;22.788;2023-08-21T07:18:17;101294.69;;;29.65;49.40
12213;BME280;6169;44.158;22.788;2023-08-21T07:23:20;101294.44;;;30.39;48.49
12213;BME280;6169;44.158;22.788;2023-08-21T07:28:23;101298.94;;;30.72;47.32
12213;BME280;6169;44.158;22.788;2023-08-21T07:33:26;101293.44;;;31.07;45.38
12213;BME280;6169;44.158;22.788;2023-08-21T07:38:28;101295.69;;;31.17;45.94
12213;BME280;6169;44.158;22.788;2023-08-21T07:43:32;101293.19;;;31.47;45.02
12213;BME280;6169;44.158;22.788;2023-08-21T07:48:35;101280.41;;;32.24;43.32
12213;BME280;6169;44.158;22.788;2023-08-21T07:53:37;101282.84;;;31.87;44.15
12213;BME280;6169;44.158;22.788;2023-08-21T07:58:41;101283.72;;;31.91;44.16
12213;BME280;6169;44.158;22.788;2023-08-21T08:03:43;101282.56;;;31.92;44.55
12213;BME280;6169;44.158;22.788;2023-08-21T08:08:45;101266.19;;;31.58;45.09
12213;BME280;6169;44.158;22.788;2023-08-21T08:13:49;101267.19;;;32.28;43.23
12213;BME280;6169;44.158;22.788;2023-08-21T08:18:51;101260.13;;;32.57;42.03
12213;BME280;6169;44.158;22.788;2023-08-21T08:23:53;101254.06;;;32.55;42.05
12213;BME280;6169;44.158;22.788;2023-08-21T08:28:57;101252.69;;;32.68;40.72
12213;BME280;6169;44.158;22.788;2023-08-21T08:33:59;101260.56;;;33.05;40.38
12213;BME280;6169;44.158;22.788;2023-08-21T08:39:02;101267.94;;;32.67;41.17
12213;BME280;6169;44.158;22.788;2023-08-21T08:44:06;101265.13;;;32.90;40.51
12213;BME280;6169;44.158;22.788;2023-08-21T08:49:08;101256.28;;;32.92;40.30
12213;BME280;6169;44.158;22.788;2023-08-21T08:54:12;101254.75;;;32.95;40.37
12213;BME280;6169;44.158;22.788;2023-08-21T08:59:16;101252.56;;;32.61;40.32
12213;BME280;6169;44.158;22.788;2023-08-21T09:04:18;101249.06;;;33.44;38.87
12213;BME280;6169;44.158;22.788;2023-08-21T09:09:20;101243.84;;;34.10;38.30
12213;BME280;6169;44.158;22.788;2023-08-21T09:14:28;101223.13;;;33.35;38.64
12213;BME280;6169;44.158;22.788;2023-08-21T09:19:30;101235.84;;;33.48;38.22
12213;BME280;6169;44.158;22.788;2023-08-21T09:24:32;101225.22;;;34.39;36.88
12213;BME280;6169;44.158;22.788;2023-08-21T09:29:41;101228.00;;;34.32;36.82
12213;BME280;6169;44.158;22.788;2023-08-21T09:34:43;101214.69;;;33.95;36.47
12213;BME280;6169;44.158;22.788;2023-08-21T09:39:46;101210.94;;;34.66;36.09
12213;BME280;6169;44.158;22.788;2023-08-21T09:44:51;101204.88;;;34.67;35.04
12213;BME280;6169;44.158;22.788;2023-08-21T09:49:54;101211.28;;;35.12;34.62
12213;BME280;6169;44.158;22.788;2023-08-21T09:54:57;101208.38;;;35.71;33.98
12213;BME280;6169;44.158;22.788;2023-08-21T10:00:02;101191.25;;;35.36;34.64
12213;BME280;6169;44.158;22.788;2023-08-21T10:05:16;101193.19;;;35.21;33.21
12213;BME280;6169;44.158;22.788;2023-08-21T10:10:19;101183.06;;;35.16;33.52
12213;BME280;6169;44.158;22.788;2023-08-21T10:15:23;101174.16;;;35.14;33.78
12213;BME280;6169;44.158;22.788;2023-08-21T10:20:26;101171.22;;;35.80;32.87
12213;BME280;6169;44.158;22.788;2023-08-21T10:25:28;101171.31;;;36.12;30.54
12213;BME280;6169;44.158;22.788;2023-08-21T10:30:32;101159.91;;;35.76;30.34
12213;BME280;6169;44.158;22.788;2023-08-21T10:35:34;101163.25;;;36.18;30.32
12213;BME280;6169;44.158;22.788;2023-08-21T10:40:38;101153.28;;;35.33;32.08
12213;BME280;6169;44.158;22.788;2023-08-21T10:45:53;101153.41;;;35.69;32.29
12213;BME280;6169;44.158;22.788;2023-08-21T10:50:58;101151.38;;;35.59;31.77
12213;BME280;6169;44.158;22.788;2023-08-21T10:56:03;101156.97;;;35.48;31.75
12213;BME280;6169;44.158;22.788;2023-08-21T11:01:07;101152.72;;;36.69;27.81
12213;BME280;6169;44.158;22.788;2023-08-21T11:06:09;101143.38;;;36.75;30.23
12213;BME280;6169;44.158;22.788;2023-08-21T11:11:12;101150.97;;;37.18;29.93
12213;BME280;6169;44.158;22.788;2023-08-21T11:16:16;101138.09;;;35.91;32.55
12213;BME280;6169;44.158;22.788;2023-08-21T11:21:18;101135.63;;;37.12;31.01
12213;BME280;6169;44.158;22.788;2023-08-21T11:26:21;101145.44;;;36.75;30.06
12213;BME280;6169;44.158;22.788;2023-08-21T11:31:25;101147.03;;;36.83;30.87
12213;BME280;6169;44.158;22.788;2023-08-21T11:36:28;101134.84;;;37.00;30.01
12213;BME280;6169;44.158;22.788;2023-08-21T11:41:30;101123.13;;;36.95;30.21
12213;BME280;6169;44.158;22.788;2023-08-21T11:46:34;101117.34;;;37.27;29.81
12213;BME280;6169;44.158;22.788;2023-08-21T11:51:38;101109.63;;;37.31;30.67
12213;BME280;6169;44.158;22.788;2023-08-21T11:56:40;101098.28;;;37.38;30.69
12213;BME280;6169;44.158;22.788;2023-08-21T12:01:50;101101.94;;;37.35;30.27
12213;BME280;6169;44.158;22.788;2023-08-21T12:06:52;101086.53;;;37.40;29.94
12213;BME280;6169;44.158;22.788;2023-08-21T12:11:55;101082.63;;;37.05;29.43
12213;BME280;6169;44.158;22.788;2023-08-21T12:16:59;101085.84;;;37.84;28.75
12213;BME280;6169;44.158;22.788;2023-08-21T12:22:01;101086.31;;;37.72;27.32
12213;BME280;6169;44.158;22.788;2023-08-21T12:27:04;101084.63;;;37.85;26.73
12213;BME280;6169;44.158;22.788;2023-08-21T12:32:08;101080.13;;;37.88;26.18
12213;BME280;6169;44.158;22.788;2023-08-21T12:37:10;101078.34;;;38.08;26.07
12213;BME280;6169;44.158;22.788;2023-08-21T12:42:12;101070.19;;;38.17;26.20
12213;BME280;6169;44.158;22.788;2023-08-21T12:47:16;101057.06;;;37.82;25.34
12213;BME280;6169;44.158;22.788;2023-08-21T12:52:19;101064.56;;;38.07;24.96
12213;BME280;6169;44.158;22.788;2023-08-21T12:57:21;101056.69;;;37.80;25.58
12213;BME280;6169;44.158;22.788;2023-08-21T13:02:25;101058.47;;;38.08;24.25
12213;BME280;6169;44.158;22.788;2023-08-21T13:07:28;101058.44;;;38.53;24.21
12213;BME280;6169;44.158;22.788;2023-08-21T13:12:30;101073.69;;;38.32;24.36
12213;BME280;6169;44.158;22.788;2023-08-21T13:17:34;101059.72;;;38.49;24.61
12213;BME280;6169;44.158;22.788;2023-08-21T13:22:47;101057.47;;;38.71;23.32
12213;BME280;6169;44.158;22.788;2023-08-21T13:27:51;101051.63;;;38.85;23.68
12213;BME280;6169;44.158;22.788;2023-08-21T13:32:55;101031.28;;;38.86;23.71
12213;BME280;6169;44.158;22.788;2023-08-21T13:37:57;101042.06;;;39.33;22.95
12213;BME280;6169;44.158;22.788;2023-08-21T13:43:00;101041.22;;;39.05;23.01
12213;BME280;6169;44.158;22.788;2023-08-21T13:48:05;101041.16;;;38.40;22.85
12213;BME280;6169;44.158;22.788;2023-08-21T13:53:07;101045.81;;;38.92;22.68
12213;BME280;6169;44.158;22.788;2023-08-21T13:58:10;101042.03;;;39.87;21.41
12213;BME280;6169;44.158;22.788;2023-08-21T14:03:13;101033.34;;;39.47;21.62
12213;BME280;6169;44.158;22.788;2023-08-21T14:08:16;101044.75;;;38.82;21.93
12213;BME280;6169;44.158;22.788;2023-08-21T14:13:18;101032.91;;;37.60;26.20
12213;BME280;6169;44.158;22.788;2023-08-21T14:18:22;101036.28;;;36.02;30.02
12213;BME280;6169;44.158;22.788;2023-08-21T14:23:24;101024.19;;;35.84;29.41
12213;BME280;6169;44.158;22.788;2023-08-21T14:28:27;101038.34;;;36.09;28.97
12213;BME280;6169;44.158;22.788;2023-08-21T14:33:31;101029.84;;;36.16;27.96
12213;BME280;6169;44.158;22.788;2023-08-21T14:38:33;101039.31;;;34.97;27.78
12213;BME280;6169;44.158;22.788;2023-08-21T14:43:35;101033.88;;;35.72;26.83
12213;BME280;6169;44.158;22.788;2023-08-21T14:48:39;101034.69;;;35.76;26.56
12213;BME280;6169;44.158;22.788;2023-08-21T14:53:41;101036.66;;;36.36;26.64
12213;BME280;6169;44.158;22.788;2023-08-21T14:58:43;101038.72;;;36.18;26.94
12213;BME280;6169;44.158;22.788;2023-08-21T15:03:47;101033.84;;;36.40;27.17
12213;BME280;6169;44.158;22.788;2023-08-21T15:08:50;101022.13;;;35.91;27.59
12213;BME280;6169;44.158;22.788;2023-08-21T15:13:52;101027.81;;;36.24;27.88
12213;BME280;6169;44.158;22.788;2023-08-21T15:18:56;101009.63;;;36.03;28.82
12213;BME280;6169;44.158;22.788;2023-08-21T15:23:59;101024.19;;;35.84;29.96
12213;BME280;6169;44.158;22.788;2023-08-21T15:29:01;101020.94;;;35.82;29.69
12213;BME280;6169;44.158;22.788;2023-08-21T15:34:05;101026.59;;;35.92;29.78
12213;BME280;6169;44.158;22.788;2023-08-21T15:39:08;101027.41;;;36.21;29.64
12213;BME280;6169;44.158;22.788;2023-08-21T15:44:10;101034.69;;;35.87;29.95
12213;BME280;6169;44.158;22.788;2023-08-21T15:49:14;101037.84;;;35.56;29.79
12213;BME280;6169;44.158;22.788;2023-08-21T15:54:18;101037.91;;;35.71;30.27
12213;BME280;6169;44.158;22.788;2023-08-21T15:59:21;101049.59;;;35.66;30.13
12213;BME280;6169;44.158;22.788;2023-08-21T16:04:25;101063.72;;;35.55;30.15
12213;BME280;6169;44.158;22.788;2023-08-21T16:09:27;101058.31;;;35.14;30.83
12213;BME280;6169;44.158;22.788;2023-08-21T16:14:29;101060.09;;;35.58;30.72
12213;BME280;6169;44.158;22.788;2023-08-21T16:19:33;101081.16;;;36.00;30.45
12213;BME280;6169;44.158;22.788;2023-08-21T16:24:37;101101.34;;;35.95;30.61
12213;BME280;6169;44.158;22.788;2023-08-21T16:29:39;101087.25;;;36.06;30.27
12213;BME280;6169;44.158;22.788;2023-08-21T16:34:43;101088.44;;;35.97;30.30
12213;BME280;6169;44.158;22.788;2023-08-21T16:39:45;101071.84;;;35.67;30.98
12213;BME280;6169;44.158;22.788;2023-08-21T16:44:48;101079.41;;;35.31;30.59
12213;BME280;6169;44.158;22.788;2023-08-21T16:49:51;101072.19;;;34.67;31.56
12213;BME280;6169;44.158;22.788;2023-08-21T16:54:54;101078.44;;;34.32;32.09
12213;BME280;6169;44.158;22.788;2023-08-21T16:59:57;101083.75;;;34.44;32.71
12213;BME280;6169;44.158;22.788;2023-08-21T17:05:01;101080.94;;;34.44;32.64
12213;BME280;6169;44.158;22.788;2023-08-21T17:10:05;101077.44;;;34.10;33.47
12213;BME280;6169;44.158;22.788;2023-08-21T17:15:09;101006.06;;;33.58;34.11
12213;BME280;6169;44.158;22.788;2023-08-21T17:20:13;101067.03;;;33.77;34.23
12213;BME280;6169;44.158;22.788;2023-08-21T17:25:15;101061.78;;;33.38;35.06
12213;BME280;6169;44.158;22.788;2023-08-21T17:30:18;101065.28;;;33.28;35.99
12213;BME280;6169;44.158;22.788;2023-08-21T17:35:22;101054.53;;;33.03;36.36
12213;BME280;6169;44.158;22.788;2023-08-21T17:40:24;101061.34;;;33.32;36.02
12213;BME280;6169;44.158;22.788;2023-08-21T17:45:27;101072.00;;;33.16;36.62
12213;BME280;6169;44.158;22.788;2023-08-21T17:50:30;101074.69;;;32.79;37.22
12213;BME280;6169;44.158;22.788;2023-08-21T17:55:34;101073.78;;;32.98;37.08
12213;BME280;6169;44.158;22.788;2023-08-21T18:00:37;101086.47;;;33.15;36.94
12213;BME280;6169;44.158;22.788;2023-08-21T18:05:41;101092.13;;;32.88;37.59
12213;BME280;6169;44.158;22.788;2023-08-21T18:10:44;101102.75;;;32.72;38.30
12213;BME280;6169;44.158;22.788;2023-08-21T18:15:48;101098.56;;;32.88;37.76
12213;BME280;6169;44.158;22.788;2023-08-21T18:20:53;101103.31;;;32.84;38.15
12213;BME280;6169;44.158;22.788;2023-08-21T18:25:56;101105.69;;;32.29;38.89
12213;BME280;6169;44.158;22.788;2023-08-21T18:30:59;101108.78;;;32.47;38.75
12213;BME280;6169;44.158;22.788;2023-08-21T18:36:03;101095.56;;;31.78;40.37
12213;BME280;6169;44.158;22.788;2023-08-21T18:41:07;101126.78;;;31.54;41.03
12213;BME280;6169;44.158;22.788;2023-08-21T18:46:09;101122.63;;;31.48;41.40
12213;BME280;6169;44.158;22.788;2023-08-21T18:51:15;101124.78;;;31.54;41.42
12213;BME280;6169;44.158;22.788;2023-08-21T18:56:18;101120.41;;;31.18;42.42
12213;BME280;6169;44.158;22.788;2023-08-21T19:01:20;101120.84;;;31.20;42.94
12213;BME280;6169;44.158;22.788;2023-08-21T19:06:25;101124.13;;;31.22;43.53
12213;BME280;6169;44.158;22.788;2023-08-21T19:11:27;101129.09;;;30.94;44.50
12213;BME280;6169;44.158;22.788;2023-08-21T19:16:30;101115.75;;;30.71;45.37
12213;BME280;6169;44.158;22.788;2023-08-21T19:21:34;101116.47;;;30.68;45.82
12213;BME280;6169;44.158;22.788;2023-08-21T19:26:36;101119.72;;;30.38;46.63
12213;BME280;6169;44.158;22.788;2023-08-21T19:31:38;101146.44;;;30.32;47.01
12213;BME280;6169;44.158;22.788;2023-08-21T19:36:42;101146.13;;;30.06;47.80
12213;BME280;6169;44.158;22.788;2023-08-21T19:41:44;101151.84;;;30.25;48.17
12213;BME280;6169;44.158;22.788;2023-08-21T19:46:47;101151.69;;;30.65;46.16
12213;BME280;6169;44.158;22.788;2023-08-21T19:51:50;101150.16;;;30.68;45.78
12213;BME280;6169;44.158;22.788;2023-08-21T19:56:52;101157.03;;;30.23;47.37
12213;BME280;6169;44.158;22.788;2023-08-21T20:01:56;101155.84;;;30.24;48.28
12213;BME280;6169;44.158;22.788;2023-08-21T20:07:00;101155.47;;;30.10;47.92
12213;BME280;6169;44.158;22.788;2023-08-21T20:12:02;101157.56;;;29.85;48.87
12213;BME280;6169;44.158;22.788;2023-08-21T20:17:05;101161.50;;;29.68;49.49
12213;BME280;6169;44.158;22.788;2023-08-21T20:22:09;101163.94;;;29.69;49.36
12213;BME280;6169;44.158;22.788;2023-08-21T20:27:11;101158.50;;;29.08;51.19
12213;BME280;6169;44.158;22.788;2023-08-21T20:32:13;101157.28;;;29.33;50.73
12213;BME280;6169;44.158;22.788;2023-08-21T20:37:18;101170.94;;;29.75;48.97
12213;BME280;6169;44.158;22.788;2023-08-21T20:42:20;101162.56;;;29.63;49.40
12213;BME280;6169;44.158;22.788;2023-08-21T20:47:22;101161.03;;;29.66;49.17
12213;BME280;6169;44.158;22.788;2023-08-21T20:52:26;101164.91;;;29.89;48.27
12213;BME280;6169;44.158;22.788;2023-08-21T20:57:29;101167.59;;;29.57;49.32
12213;BME280;6169;44.158;22.788;2023-08-21T21:02:31;101171.53;;;29.69;49.33
12213;BME280;6169;44.158;22.788;2023-08-21T21:07:35;101162.00;;;29.57;49.41
12213;BME280;6169;44.158;22.788;2023-08-21T21:12:38;101161.69;;;29.47;49.53
12213;BME280;6169;44.158;22.788;2023-08-21T21:17:40;101166.72;;;29.41;50.18
12213;BME280;6169;44.158;22.788;2023-08-21T21:22:44;101165.31;;;29.35;49.70
12213;BME280;6169;44.158;22.788;2023-08-21T21:27:46;101164.75;;;29.29;50.13
12213;BME280;6169;44.158;22.788;2023-08-21T21:32:48;101168.63;;;29.12;51.17
12213;BME280;6169;44.158;22.788;2023-08-21T21:37:52;101167.53;;;29.42;49.45
12213;BME280;6169;44.158;22.788;2023-08-21T21:42:54;101171.81;;;29.11;50.82
12213;BME280;6169;44.158;22.788;2023-08-21T21:47:56;101171.09;;;28.89;51.27
12213;BME280;6169;44.158;22.788;2023-08-21T21:53:00;101178.88;;;29.21;49.70
12213;BME280;6169;44.158;22.788;2023-08-21T21:58:02;101181.31;;;29.34;49.54
12213;BME280;6169;44.158;22.788;2023-08-21T22:03:04;101181.91;;;29.15;49.76
12213;BME280;6169;44.158;22.788;2023-08-21T22:08:08;101168.16;;;29.23;49.48
12213;BME280;6169;44.158;22.788;2023-08-21T22:13:10;101176.78;;;29.18;49.73
12213;BME280;6169;44.158;22.788;2023-08-21T22:18:13;101182.28;;;29.02;49.92
12213;BME280;6169;44.158;22.788;2023-08-21T22:23:17;101182.75;;;28.55;51.40
12213;BME280;6169;44.158;22.788;2023-08-21T22:28:19;101180.81;;;28.22;52.54
12213;BME280;6169;44.158;22.788;2023-08-21T22:33:21;101175.31;;;28.13;53.01
12213;BME280;6169;44.158;22.788;2023-08-21T22:38:25;101173.06;;;28.40;51.83
12213;BME280;6169;44.158;22.788;2023-08-21T22:43:27;101173.91;;;28.07;52.80
12213;BME280;6169;44.158;22.788;2023-08-21T22:48:29;101171.50;;;27.85;54.10
12213;BME280;6169;44.158;22.788;2023-08-21T22:53:36;101176.28;;;28.30;52.47
12213;BME280;6169;44.158;22.788;2023-08-21T22:58:38;101177.56;;;28.20;52.36
12213;BME280;6169;44.158;22.788;2023-08-21T23:03:40;101168.91;;;28.13;52.80
12213;BME280;6169;44.158;22.788;2023-08-21T23:08:44;101162.53;;;27.91;53.31
12213;BME280;6169;44.158;22.788;2023-08-21T23:13:46;101169.34;;;28.97;49.68
12213;BME280;6169;44.158;22.788;2023-08-21T23:18:48;101174.38;;;28.67;50.24
12213;BME280;6169;44.158;22.788;2023-08-21T23:23:52;101175.88;;;28.89;49.84
12213;BME280;6169;44.158;22.788;2023-08-21T23:28:54;101166.34;;;28.65;50.33
12213;BME280;6169;44.158;22.788;2023-08-21T23:33:56;101167.72;;;28.72;49.81
12213;BME280;6169;44.158;22.788;2023-08-21T23:39:00;101170.00;;;28.33;51.40
12213;BME280;6169;44.158;22.788;2023-08-21T23:44:06;101174.72;;;28.53;50.44
12213;BME280;6169;44.158;22.788;2023-08-21T23:49:10;101176.94;;;28.72;49.41
12213;BME280;6169;44.158;22.788;2023-08-21T23:54:13;101180.69;;;28.18;51.04
12213;BME280;6169;44.158;22.788;2023-08-21T23:59:16;101179.16;;;27.75;52.70
